createdAt,value
2022-11-12T00:01:08.831Z,10.70
2022-11-12T00:03:37.178Z,19.10
2022-11-12T00:06:05.693Z,19.17
2022-11-12T00:08:34.058Z,17.23
2022-11-12T00:11:02.451Z,14.13
2022-11-12T00:13:32.211Z,3.57
2022-11-12T00:16:00.598Z,4.33
2022-11-12T00:18:29.335Z,2.63
2022-11-12T00:20:58.032Z,7.57
2022-11-12T00:23:26.375Z,1.10
2022-11-12T00:26:00.100Z,0.80
2022-11-12T00:28:32.222Z,0.87
2022-11-12T00:31:09.849Z,1.10
2022-11-12T00:33:41.027Z,0.70
2022-11-12T00:36:09.753Z,21.63
2022-11-12T00:38:38.095Z,14.60
2022-11-12T00:41:06.759Z,10.63
2022-11-12T00:43:35.261Z,2.67
2022-11-12T00:46:03.571Z,5.47
2022-11-12T00:48:33.378Z,8.87
2022-11-12T00:51:02.718Z,5.07
2022-11-12T00:53:31.063Z,9.77
2022-11-12T00:56:03.217Z,13.20
2022-11-12T00:58:31.935Z,11.00
2022-11-12T01:01:00.442Z,4.57
2022-11-12T01:03:29.587Z,1.07
2022-11-12T01:06:04.755Z,6.83
2022-11-12T01:08:33.139Z,1.50
2022-11-12T01:11:06.717Z,1.63
2022-11-12T01:13:37.805Z,1.57
2022-11-12T01:16:10.238Z,1.13
2022-11-12T01:18:38.849Z,2.10
2022-11-12T01:21:09.768Z,3.20
2022-11-12T01:23:39.492Z,2.97
2022-11-12T01:26:08.396Z,14.47
2022-11-12T01:28:37.280Z,1.93
2022-11-12T01:31:12.623Z,2.27
2022-11-12T01:33:41.092Z,12.00
2022-11-12T01:36:11.346Z,10.43
2022-11-12T01:38:40.655Z,5.97
2022-11-12T01:41:14.275Z,16.70
2022-11-12T01:43:42.672Z,9.13
2022-11-12T01:46:15.059Z,21.20
2022-11-12T01:48:48.790Z,21.17
2022-11-12T01:51:18.669Z,21.57
2022-11-12T01:53:49.397Z,22.47
2022-11-12T01:56:18.374Z,18.30
2022-11-12T01:58:48.466Z,12.37
2022-11-12T02:01:16.846Z,22.43
2022-11-12T02:03:45.261Z,21.33
2022-11-12T02:06:15.786Z,25.07
2022-11-12T02:08:45.922Z,26.60
2022-11-12T02:11:15.084Z,28.93
2022-11-12T02:14:00.922Z,29.13
2022-11-12T02:16:31.131Z,30.33
2022-11-12T02:18:59.573Z,27.90
2022-11-12T02:21:29.667Z,20.80
2022-11-12T02:24:01.694Z,28.50
2022-11-12T02:26:31.896Z,31.97
2022-11-12T02:29:00.310Z,34.93
2022-11-12T02:31:28.689Z,31.73
2022-11-12T02:33:57.261Z,24.20
2022-11-12T02:36:25.794Z,26.23
2022-11-12T02:38:55.485Z,32.10
2022-11-12T02:41:23.832Z,30.40
2022-11-12T02:43:52.116Z,36.83
2022-11-12T02:46:20.460Z,35.87
2022-11-12T02:48:48.795Z,38.57
2022-11-12T02:51:17.265Z,35.30
2022-11-12T02:53:45.623Z,35.13
2022-11-12T02:56:15.301Z,41.27
2022-11-12T02:58:43.644Z,27.40
2022-11-12T03:01:12.081Z,39.30
2022-11-12T03:03:40.512Z,36.17
2022-11-12T03:06:09.352Z,46.93
2022-11-12T03:08:37.739Z,36.53
2022-11-12T03:11:09.766Z,45.13
2022-11-12T03:13:39.919Z,5.83
2022-11-12T03:16:08.507Z,17.83
2022-11-12T03:18:37.713Z,40.93
2022-11-12T03:21:06.589Z,37.97
2022-11-12T03:23:35.020Z,49.43
2022-11-12T03:26:06.728Z,48.17
2022-11-12T03:28:35.130Z,14.93
2022-11-12T03:31:04.898Z,18.10
2022-11-12T03:33:33.243Z,49.47
2022-11-12T03:36:01.685Z,48.73
2022-11-12T03:38:30.168Z,37.57
2022-11-12T03:40:58.576Z,48.93
2022-11-12T03:43:26.925Z,57.23
2022-11-12T03:45:55.270Z,68.27
2022-11-12T03:48:25.330Z,51.53
2022-11-12T03:50:53.930Z,60.60
2022-11-12T03:53:22.255Z,41.93
2022-11-12T03:55:50.625Z,68.40
2022-11-12T03:58:19.011Z,42.47
2022-11-12T04:00:47.444Z,61.63
2022-11-12T04:03:15.862Z,76.40
2022-11-12T04:06:02.834Z,92.53
2022-11-12T04:08:37.252Z,76.97
2022-11-12T04:11:06.711Z,93.37
2022-11-12T04:13:34.056Z,132.40
2022-11-12T04:16:21.216Z,11.33
2022-11-12T04:19:08.398Z,162.63
2022-11-12T04:21:57.422Z,116.10
2022-11-12T04:24:44.641Z,143.60
2022-11-12T04:27:15.060Z,221.23
2022-11-12T04:30:01.160Z,120.93
2022-11-12T04:32:29.668Z,229.27
2022-11-12T04:34:58.036Z,257.97
2022-11-12T04:37:28.503Z,173.57
2022-11-12T04:40:17.010Z,378.80
2022-11-12T04:43:06.829Z,211.90
2022-11-12T04:45:35.579Z,200.30
2022-11-12T04:48:03.939Z,172.50
2022-11-12T04:50:32.378Z,246.47
2022-11-12T04:53:02.047Z,380.30
2022-11-12T04:55:30.402Z,280.70
2022-11-12T04:58:00.853Z,198.13
2022-11-12T05:00:29.617Z,94.60
2022-11-12T05:02:58.009Z,250.60
2022-11-12T05:05:29.776Z,118.53
2022-11-12T05:08:03.309Z,108.50
2022-11-12T05:10:31.616Z,179.17
2022-11-12T05:12:59.971Z,212.60
2022-11-12T05:15:30.757Z,276.00
2022-11-12T05:17:59.411Z,49.50
2022-11-12T05:20:27.878Z,135.33
2022-11-12T05:23:08.929Z,157.67
2022-11-12T05:25:38.694Z,125.57
2022-11-12T05:28:07.423Z,19.77
2022-11-12T05:30:36.633Z,133.80
2022-11-12T05:33:05.074Z,132.87
2022-11-12T05:35:33.419Z,107.30
2022-11-12T05:38:01.803Z,143.00
2022-11-12T05:40:30.163Z,95.50
2022-11-12T05:42:59.841Z,58.67
2022-11-12T05:45:28.301Z,56.03
2022-11-12T05:47:56.650Z,65.07
2022-11-12T05:50:28.217Z,98.77
2022-11-12T05:53:02.973Z,56.83
2022-11-12T05:55:36.807Z,92.67
2022-11-12T05:58:07.822Z,33.00
2022-11-12T06:00:39.153Z,100.40
2022-11-12T06:03:07.583Z,43.30
2022-11-12T06:05:36.107Z,104.50
2022-11-12T06:08:05.426Z,83.97
2022-11-12T06:10:34.200Z,80.70
2022-11-12T06:13:02.619Z,34.67
2022-11-12T06:15:37.979Z,11.73
2022-11-12T06:18:07.744Z,16.50
2022-11-12T06:20:36.124Z,46.40
2022-11-12T06:23:04.526Z,18.50
2022-11-12T06:25:32.873Z,56.17
2022-11-12T06:28:01.227Z,16.17
2022-11-12T06:30:29.617Z,13.73
2022-11-12T06:32:59.290Z,25.70
2022-11-12T06:35:27.594Z,6.00
2022-11-12T06:37:56.281Z,7.17
2022-11-12T06:40:24.887Z,66.83
2022-11-12T06:42:57.959Z,75.63
2022-11-12T06:45:26.361Z,67.97
2022-11-12T06:47:54.713Z,70.27
2022-11-12T06:50:24.455Z,39.47
2022-11-12T06:52:52.815Z,57.50
2022-11-12T06:55:21.194Z,68.67
2022-11-12T06:57:53.102Z,78.60
2022-11-12T07:00:21.592Z,65.37
2022-11-12T07:02:49.971Z,52.60
2022-11-12T07:05:18.335Z,95.60
2022-11-12T07:07:48.033Z,94.27
2022-11-12T07:10:16.545Z,68.37
2022-11-12T07:12:47.938Z,82.43
2022-11-12T07:15:20.443Z,75.10
2022-11-12T07:17:48.822Z,69.47
2022-11-12T07:20:17.511Z,61.17
2022-11-12T07:22:45.909Z,75.10
2022-11-12T07:25:16.056Z,89.67
2022-11-12T07:27:44.755Z,79.33
2022-11-12T07:30:13.443Z,49.67
2022-11-12T07:32:45.079Z,37.03
2022-11-12T07:35:16.903Z,80.40
2022-11-12T07:37:45.283Z,35.50
2022-11-12T07:40:13.890Z,77.17
2022-11-12T07:42:46.673Z,63.77
2022-11-12T07:45:15.134Z,88.27
2022-11-12T07:47:43.453Z,96.23
2022-11-12T07:50:11.917Z,90.07
2022-11-12T07:52:40.313Z,66.30
2022-11-12T07:55:09.073Z,69.53
2022-11-12T07:57:37.461Z,79.03
2022-11-12T08:00:08.141Z,80.90
2022-11-12T08:02:36.636Z,45.10
2022-11-12T08:05:09.845Z,23.43
2022-11-12T08:07:42.047Z,13.17
2022-11-12T08:10:11.268Z,17.20
2022-11-12T08:12:39.636Z,8.27
2022-11-12T08:15:09.696Z,19.80
2022-11-12T08:17:40.055Z,82.13
2022-11-12T08:20:09.178Z,61.40
2022-11-12T08:22:37.559Z,52.13
2022-11-12T08:25:06.194Z,75.27
2022-11-12T08:27:34.867Z,17.43
2022-11-12T08:30:03.259Z,38.27
2022-11-12T08:32:32.978Z,108.30
2022-11-12T08:35:02.212Z,150.07
2022-11-12T08:37:30.635Z,95.90
2022-11-12T08:39:59.065Z,101.93
2022-11-12T08:42:27.449Z,30.90
2022-11-12T08:44:55.827Z,98.20
2022-11-12T08:47:24.187Z,118.43
2022-11-12T08:49:53.943Z,90.07
2022-11-12T08:52:25.674Z,75.83
2022-11-12T08:54:54.044Z,60.33
2022-11-12T08:57:22.428Z,94.53
2022-11-12T08:59:52.080Z,10.17
2022-11-12T09:02:20.425Z,16.57
2022-11-12T09:04:48.807Z,14.67
2022-11-12T09:07:47.971Z,41.73
2022-11-12T09:10:07.907Z,35.57
2022-11-12T09:12:36.671Z,12.07
2022-11-12T09:15:35.860Z,18.23
2022-11-12T09:17:57.290Z,32.00
2022-11-12T09:20:25.629Z,49.93
2022-11-12T09:22:56.644Z,19.33
2022-11-12T09:25:25.032Z,57.73
2022-11-12T09:27:53.385Z,28.80
2022-11-12T09:30:21.762Z,52.43
2022-11-12T09:32:50.257Z,32.87
2022-11-12T09:35:18.739Z,37.97
2022-11-12T09:37:47.094Z,30.20
2022-11-12T09:40:20.012Z,15.47
2022-11-12T09:42:51.656Z,23.87
2022-11-12T09:45:21.028Z,35.83
2022-11-12T09:47:52.319Z,26.07
2022-11-12T09:50:24.377Z,32.00
2022-11-12T09:52:59.182Z,21.33
2022-11-12T09:55:31.806Z,9.00
2022-11-12T09:58:00.170Z,27.87
2022-11-12T10:00:28.543Z,30.87
2022-11-12T10:03:02.779Z,9.10
2022-11-12T10:05:35.167Z,10.63
2022-11-12T10:08:11.937Z,7.33
2022-11-12T10:10:45.966Z,18.53
2022-11-12T10:13:23.473Z,9.07
2022-11-12T10:16:18.831Z,4.57
2022-11-12T10:19:04.208Z,2.00
2022-11-12T10:21:36.310Z,2.60
2022-11-12T10:24:05.886Z,10.40
2022-11-12T10:26:35.696Z,16.63
2022-11-12T10:29:08.188Z,16.27
2022-11-12T10:31:36.525Z,13.70
2022-11-12T10:34:16.235Z,17.77
2022-11-12T10:36:46.169Z,1.30
2022-11-12T10:39:29.340Z,0.77
2022-11-12T10:42:05.817Z,6.53
2022-11-12T10:44:34.157Z,2.20
2022-11-12T10:47:21.581Z,13.83
2022-11-12T10:50:01.145Z,16.23
2022-11-12T10:52:29.536Z,14.83
2022-11-12T10:55:06.280Z,7.20
2022-11-12T10:57:35.989Z,13.40
2022-11-12T11:00:19.310Z,13.83
2022-11-12T11:02:50.508Z,19.03
2022-11-12T11:05:29.241Z,16.87
2022-11-12T11:07:57.622Z,16.17
2022-11-12T11:10:28.030Z,15.87
2022-11-12T11:13:19.668Z,10.57
2022-11-12T11:16:01.855Z,15.80
2022-11-12T11:18:30.936Z,13.17
2022-11-12T11:21:05.320Z,16.27
2022-11-12T11:23:36.463Z,10.80
2022-11-12T11:26:09.108Z,12.43
2022-11-12T11:28:42.906Z,11.63
2022-11-12T11:31:20.168Z,12.67
2022-11-12T11:33:50.391Z,9.00
2022-11-12T11:36:22.056Z,10.47
2022-11-12T11:38:58.459Z,13.77
2022-11-12T11:41:36.369Z,5.30
2022-11-12T11:44:14.106Z,8.87
2022-11-12T11:46:50.043Z,9.87
2022-11-12T11:49:33.232Z,1.73
2022-11-12T11:52:04.699Z,9.90
2022-11-12T11:54:43.784Z,8.93
2022-11-12T11:57:13.361Z,10.63
2022-11-12T11:59:48.657Z,12.47
2022-11-12T12:02:29.191Z,7.07
2022-11-12T12:05:00.614Z,6.60
2022-11-12T12:07:36.491Z,8.57
2022-11-12T12:10:09.524Z,10.13
2022-11-12T12:12:49.035Z,8.33
2022-11-12T12:15:32.255Z,0.43
2022-11-12T12:18:04.062Z,8.13
2022-11-12T12:20:37.505Z,7.37
2022-11-12T12:23:07.833Z,0.40
2022-11-12T12:25:38.704Z,6.80
2022-11-12T12:28:10.559Z,3.87
2022-11-12T12:30:42.871Z,2.47
2022-11-12T12:33:17.984Z,0.50
2022-11-12T12:35:49.590Z,0.50
2022-11-12T12:38:22.614Z,0.53
2022-11-12T12:40:53.765Z,0.77
2022-11-12T12:43:25.124Z,0.50
2022-11-12T12:45:54.984Z,8.20
2022-11-12T12:48:26.768Z,3.63
2022-11-12T12:50:55.623Z,5.87
2022-11-12T12:53:34.581Z,7.03
2022-11-12T12:56:04.577Z,2.53
2022-11-12T12:58:34.078Z,3.77
2022-11-12T13:01:07.913Z,3.57
2022-11-12T13:03:48.169Z,3.37
2022-11-12T13:06:17.953Z,1.23
2022-11-12T13:08:46.283Z,6.17
2022-11-12T13:12:00.432Z,3.90
2022-11-12T13:14:47.480Z,1.10
2022-11-12T13:17:37.242Z,2.90
2022-11-12T13:20:19.492Z,3.50
2022-11-12T13:22:52.278Z,2.07
2022-11-12T13:25:27.572Z,5.10
2022-11-12T13:28:11.989Z,0.67
2022-11-12T13:30:59.298Z,5.07
2022-11-12T13:33:31.007Z,2.67
2022-11-12T13:36:19.867Z,2.20
2022-11-12T13:38:49.682Z,2.73
2022-11-12T13:41:19.525Z,3.10
2022-11-12T13:43:48.745Z,2.90
2022-11-12T13:46:36.473Z,1.73
2022-11-12T13:49:08.729Z,0.40
2022-11-12T13:51:39.911Z,2.23
2022-11-12T13:54:26.995Z,3.67
2022-11-12T13:56:55.511Z,5.13
2022-11-12T13:59:25.347Z,1.90
2022-11-12T14:01:53.681Z,1.30
2022-11-12T14:04:24.949Z,0.30
2022-11-12T14:06:54.268Z,1.23
2022-11-12T14:09:37.761Z,0.30
2022-11-12T14:12:22.451Z,2.50
2022-11-12T14:15:00.109Z,0.30
2022-11-12T14:17:32.843Z,5.17
2022-11-12T14:20:10.047Z,0.30
2022-11-12T14:22:40.650Z,0.40
2022-11-12T14:25:14.980Z,1.17
2022-11-12T14:27:43.319Z,1.93
2022-11-12T14:30:16.167Z,1.13
2022-11-12T14:32:45.614Z,0.30
2022-11-12T14:35:31.844Z,1.83
2022-11-12T14:38:02.192Z,1.33
2022-11-12T14:40:31.458Z,0.93
2022-11-12T14:43:00.130Z,0.57
2022-11-12T14:45:32.586Z,0.50
2022-11-12T14:48:03.618Z,0.30
2022-11-12T14:50:40.197Z,1.07
2022-11-12T14:53:11.475Z,0.30
2022-11-12T14:55:41.604Z,0.60
2022-11-12T14:58:16.188Z,2.97
2022-11-12T15:00:46.569Z,0.40
2022-11-12T15:03:16.842Z,2.67
2022-11-12T15:05:56.667Z,1.17
2022-11-12T15:08:32.551Z,0.43
2022-11-12T15:11:21.324Z,1.03
2022-11-12T15:13:51.142Z,1.90
2022-11-12T15:16:21.691Z,0.40
2022-11-12T15:19:00.753Z,1.37
2022-11-12T15:21:33.056Z,1.63
2022-11-12T15:24:06.574Z,2.67
2022-11-12T15:26:36.954Z,2.13
2022-11-12T15:29:15.207Z,1.27
2022-11-12T15:31:47.695Z,0.50
2022-11-12T15:34:26.773Z,1.27
2022-11-12T15:36:56.844Z,1.27
2022-11-12T15:39:26.139Z,0.50
2022-11-12T15:41:58.869Z,0.40
2022-11-12T15:44:27.521Z,2.03
2022-11-12T15:46:55.853Z,1.60
2022-11-12T15:49:24.182Z,2.97
2022-11-12T15:51:52.545Z,1.53
2022-11-12T15:54:22.256Z,1.13
2022-11-12T15:56:51.048Z,2.10
2022-11-12T15:59:20.336Z,1.93
2022-11-12T16:01:48.697Z,1.70
2022-11-12T16:04:17.005Z,4.13
2022-11-12T16:06:45.468Z,3.53
2022-11-12T16:09:13.795Z,1.23
2022-11-12T16:11:43.580Z,2.13
2022-11-12T16:14:13.302Z,2.30
2022-11-12T16:16:41.654Z,1.83
2022-11-12T16:19:15.301Z,2.20
2022-11-12T16:21:43.722Z,3.73
2022-11-12T16:24:12.090Z,1.53
2022-11-12T16:26:41.014Z,6.07
2022-11-12T16:29:13.655Z,2.87
2022-11-12T16:31:42.934Z,5.03
2022-11-12T16:34:11.303Z,7.33
2022-11-12T16:36:39.942Z,4.33
2022-11-12T16:39:08.314Z,1.80
2022-11-12T16:41:36.664Z,4.33
2022-11-12T16:44:05.286Z,4.63
2022-11-12T16:46:39.286Z,2.93
2022-11-12T16:49:07.620Z,1.07
2022-11-12T16:51:35.990Z,0.57
2022-11-12T16:54:04.348Z,5.60
2022-11-12T16:56:32.802Z,1.20
2022-11-12T16:59:01.319Z,1.77
2022-11-12T17:01:30.676Z,0.57
2022-11-12T17:04:00.446Z,0.50
2022-11-12T17:06:34.204Z,0.70
2022-11-12T17:09:02.466Z,1.13
2022-11-12T17:11:30.787Z,6.60
2022-11-12T17:13:59.181Z,0.93
2022-11-12T17:16:27.562Z,0.50
2022-11-12T17:18:56.027Z,2.13
2022-11-12T17:21:25.928Z,3.97
2022-11-12T17:23:55.965Z,6.00
2022-11-12T17:26:24.494Z,2.23
2022-11-12T17:29:00.080Z,7.87
2022-11-12T17:31:30.684Z,5.93
2022-11-12T17:34:00.945Z,2.80
2022-11-12T17:36:30.846Z,0.50
2022-11-12T17:38:59.871Z,0.50
2022-11-12T17:41:29.449Z,0.40
2022-11-12T17:43:57.838Z,3.30
2022-11-12T17:46:26.313Z,5.30
2022-11-12T17:48:54.878Z,4.53
2022-11-12T17:51:24.089Z,2.07
2022-11-12T17:53:54.192Z,0.50
2022-11-12T17:56:23.641Z,1.40
2022-11-12T17:58:52.661Z,1.07
2022-11-12T18:01:21.945Z,0.50
2022-11-12T18:03:51.897Z,3.03
2022-11-12T18:06:21.269Z,0.70
2022-11-12T18:08:49.677Z,0.50
2022-11-12T18:11:19.314Z,0.50
2022-11-12T18:13:47.657Z,1.47
2022-11-12T18:16:16.733Z,2.10
2022-11-12T18:18:45.154Z,0.77
2022-11-12T18:21:13.788Z,0.50
2022-11-12T18:23:43.576Z,1.43
2022-11-12T18:26:13.902Z,2.50
2022-11-12T18:28:43.607Z,0.80
2022-11-12T18:31:12.902Z,1.10
2022-11-12T18:33:41.223Z,1.00
2022-11-12T18:36:11.954Z,1.37
2022-11-12T18:38:40.347Z,2.53
2022-11-12T18:41:09.664Z,0.50
2022-11-12T18:43:38.043Z,0.60
2022-11-12T18:46:08.128Z,1.27
2022-11-12T18:48:38.544Z,1.20
2022-11-12T18:51:09.054Z,1.23
2022-11-12T18:53:37.606Z,2.37
2022-11-12T18:56:07.592Z,0.80
2022-11-12T18:58:36.112Z,2.60
2022-11-12T19:01:04.546Z,0.60
2022-11-12T19:03:34.724Z,0.50
2022-11-12T19:06:03.916Z,0.57
2022-11-12T19:08:32.453Z,0.50
2022-11-12T19:11:01.134Z,1.87
2022-11-12T19:13:29.718Z,0.87
2022-11-12T19:16:03.923Z,1.17
2022-11-12T19:18:33.754Z,0.50
2022-11-12T19:21:03.143Z,6.30
2022-11-12T19:23:31.504Z,5.60
2022-11-12T19:26:01.502Z,1.70
2022-11-12T19:28:30.585Z,3.73
2022-11-12T19:30:59.610Z,2.20
2022-11-12T19:33:28.015Z,1.03
2022-11-12T19:36:00.953Z,2.23
2022-11-12T19:38:32.369Z,3.03
2022-11-12T19:41:04.616Z,2.47
2022-11-12T19:43:33.111Z,2.03
2022-11-12T19:46:01.560Z,0.87
2022-11-12T19:48:31.314Z,1.87
2022-11-12T19:51:03.758Z,1.33
2022-11-12T19:53:32.586Z,3.93
2022-11-12T19:56:01.583Z,0.50
2022-11-12T19:58:31.727Z,0.50
2022-11-12T20:01:04.923Z,0.50
2022-11-12T20:03:33.575Z,0.50
2022-11-12T20:06:03.880Z,1.97
2022-11-12T20:08:32.199Z,2.60
2022-11-12T20:11:00.710Z,1.13
2022-11-12T20:13:29.275Z,0.80
2022-11-12T20:15:57.679Z,0.70
2022-11-12T20:18:26.669Z,1.10
2022-11-12T20:20:56.019Z,0.60
2022-11-12T20:23:26.704Z,1.13
2022-11-12T20:25:55.443Z,1.27
2022-11-12T20:28:23.772Z,2.40
2022-11-12T20:30:52.107Z,0.70
2022-11-12T20:33:20.414Z,0.90
2022-11-12T20:35:48.710Z,2.33
2022-11-12T20:38:17.097Z,3.03
2022-11-12T20:40:46.772Z,0.83
2022-11-12T20:43:16.661Z,0.50
2022-11-12T20:45:44.920Z,0.50
2022-11-12T20:48:13.218Z,1.73
2022-11-12T20:50:51.712Z,1.27
2022-11-12T20:53:29.781Z,1.27
2022-11-12T20:56:04.942Z,0.77
2022-11-12T20:58:33.290Z,0.57
2022-11-12T21:01:01.715Z,1.30
2022-11-12T21:03:30.100Z,2.07
2022-11-12T21:05:59.450Z,1.10
2022-11-12T21:08:29.036Z,1.07
2022-11-12T21:10:59.478Z,0.70
2022-11-12T21:13:27.882Z,0.93
2022-11-12T21:15:56.515Z,7.23
2022-11-12T21:18:27.243Z,1.37
2022-11-12T21:21:01.394Z,5.80
2022-11-12T21:23:30.367Z,2.03
2022-11-12T21:26:05.433Z,1.93
2022-11-12T21:28:34.901Z,1.20
2022-11-12T21:31:04.087Z,1.47
2022-11-12T21:33:32.458Z,1.57
2022-11-12T21:36:00.850Z,2.97
2022-11-12T21:38:29.713Z,0.90
2022-11-12T21:41:06.888Z,1.07
2022-11-12T21:43:36.932Z,0.90
2022-11-12T21:46:08.203Z,0.80
2022-11-12T21:48:36.642Z,2.77
2022-11-12T21:51:05.602Z,2.00
2022-11-12T21:53:34.288Z,2.17
2022-11-12T21:56:03.178Z,1.10
2022-11-12T21:58:32.953Z,0.60
2022-11-12T22:01:07.901Z,4.07
2022-11-12T22:03:39.721Z,2.00
2022-11-12T22:06:08.683Z,2.40
2022-11-12T22:08:37.246Z,1.77
2022-11-12T22:11:09.767Z,3.47
2022-11-12T22:13:39.837Z,0.97
2022-11-12T22:16:08.872Z,1.57
2022-11-12T22:18:37.217Z,2.43
2022-11-12T22:21:06.348Z,3.37
2022-11-12T22:23:36.037Z,3.70
2022-11-12T22:26:05.255Z,1.87
2022-11-12T22:28:34.342Z,3.40
2022-11-12T22:31:07.711Z,4.13
2022-11-12T22:33:36.523Z,3.90
2022-11-12T22:36:05.255Z,9.57
2022-11-12T22:38:37.077Z,5.20
2022-11-12T22:41:06.173Z,7.37
2022-11-12T22:43:34.690Z,3.47
2022-11-12T22:46:08.315Z,10.43
2022-11-12T22:48:36.662Z,4.07
2022-11-12T22:51:05.995Z,3.37
2022-11-12T22:53:34.820Z,4.80
2022-11-12T22:56:03.887Z,4.20
2022-11-12T22:58:32.234Z,5.77
2022-11-12T23:01:00.633Z,4.47
2022-11-12T23:03:31.687Z,0.87
2022-11-12T23:06:00.037Z,0.63
2022-11-12T23:08:29.690Z,0.60
2022-11-12T23:10:58.416Z,0.60
2022-11-12T23:13:27.903Z,1.43
2022-11-12T23:15:56.252Z,3.43
2022-11-12T23:18:24.698Z,1.33
2022-11-12T23:20:54.549Z,1.43
2022-11-12T23:23:22.836Z,1.60
2022-11-12T23:25:51.145Z,1.43
2022-11-12T23:28:19.445Z,1.10
2022-11-12T23:30:50.943Z,0.60
2022-11-12T23:33:19.256Z,7.53
2022-11-12T23:35:47.603Z,3.93
2022-11-12T23:38:17.379Z,0.60
2022-11-12T23:40:53.804Z,2.70
2022-11-12T23:43:22.147Z,1.13
2022-11-12T23:45:51.781Z,0.60
2022-11-12T23:48:20.535Z,0.80
2022-11-12T23:50:49.930Z,0.97
2022-11-12T23:53:19.803Z,2.13
2022-11-12T23:55:48.098Z,1.80
2022-11-12T23:58:17.153Z,2.93
